Time;durP1;ratioP1;P1;durP2;ratioP2;P2;SDS_P1;SDS_P2;PMS_P1;PMS_P2;Temp;Humidity;BMP_temperature;BMP_pressure;BME280_temperature;BME280_humidity;BME280_pressure;Samples;Min_cycle;Max_cycle;Signal;HPM_P1;HPM_P2
2023/04/04 00:01:15;;;;;;;18.70;10.47;;;;;;;9.46;nan;-24081.19;4973820;28;20204;-67
2023/04/04 00:03:41;;;;;;;18.33;9.77;;;;;;;9.49;nan;-24082.03;4974115;28;20173;-67
2023/04/04 00:06:06;;;;;;;21.83;9.73;;;;;;;9.18;nan;-24073.41;4974381;28;20170;-66
2023/04/04 00:08:32;;;;;;;16.83;9.47;;;;;;;9.20;nan;-24074.00;4973862;28;20173;-67
2023/04/04 00:11:01;;;;;;;17.43;9.77;;;;;;;9.70;nan;-24088.13;4973677;28;20208;-67
2023/04/04 00:13:27;;;;;;;18.63;9.93;;;;;;;9.36;nan;-24078.50;4973210;28;20172;-67
2023/04/04 00:15:53;;;;;;;20.10;10.40;;;;;;;9.54;nan;-24083.59;4974230;28;20177;-66
2023/04/04 00:18:19;;;;;;;17.53;10.03;;;;;;;9.61;nan;-24085.56;4973573;28;20178;-66
2023/04/04 00:20:44;;;;;;;23.90;11.03;;;;;;;9.43;nan;-24080.34;4973722;28;20197;-69
2023/04/04 00:23:10;;;;;;;18.63;9.67;;;;;;;9.23;nan;-24074.84;4974058;28;20228;-68
2023/04/04 00:25:36;;;;;;;21.00;10.33;;;;;;;9.60;nan;-24085.28;4973873;28;20173;-66
2023/04/04 00:28:02;;;;;;;21.67;10.07;;;;;;;9.55;nan;-24083.75;4973726;28;20304;-67
2023/04/04 00:30:28;;;;;;;20.13;10.30;;;;;;;9.32;nan;-24077.38;4973738;28;20245;-68
2023/04/04 00:32:55;;;;;;;22.07;10.33;;;;;;;9.66;nan;-24086.84;4973771;28;20211;-66
2023/04/04 00:35:20;;;;;;;20.70;10.27;;;;;;;9.70;nan;-24088.13;4973922;28;20169;-67
2023/04/04 00:37:46;;;;;;;19.47;9.73;;;;;;;9.70;nan;-24088.13;4973697;28;20235;-69
2023/04/04 00:40:11;;;;;;;20.07;10.13;;;;;;;9.44;nan;-24080.78;4973433;28;20652;-66
2023/04/04 00:42:37;;;;;;;21.77;10.33;;;;;;;9.56;nan;-24084.16;4973273;28;20208;-66
2023/04/04 00:45:04;;;;;;;19.17;10.03;;;;;;;9.70;nan;-24088.13;4973539;28;20209;-66
2023/04/04 00:47:32;;;;;;;20.30;10.87;;;;;;;9.40;nan;-24079.63;4973599;28;20559;-67
2023/04/04 00:49:58;;;;;;;21.23;10.93;;;;;;;9.36;nan;-24078.50;4971889;28;20319;-69
2023/04/04 00:52:23;;;;;;;20.23;10.90;;;;;;;9.72;nan;-24088.69;4973397;28;20711;-67
2023/04/04 00:54:49;;;;;;;20.90;11.07;;;;;;;9.64;nan;-24086.28;4973634;28;20169;-66
2023/04/04 00:57:15;;;;;;;21.13;9.80;;;;;;;9.72;nan;-24088.53;4971923;28;20170;-67
2023/04/04 00:59:42;;;;;;;23.93;10.53;;;;;;;9.74;nan;-24089.25;4972819;28;20536;-67
2023/04/04 01:02:07;;;;;;;17.97;10.10;;;;;;;9.83;nan;-24091.50;4972592;28;20683;-66
2023/04/04 01:04:33;;;;;;;23.03;11.70;;;;;;;9.61;nan;-24085.56;4972670;28;20192;-66
2023/04/04 01:06:59;;;;;;;22.67;11.73;;;;;;;9.50;nan;-24082.31;4972841;28;20177;-65
2023/04/04 01:09:25;;;;;;;21.57;11.67;;;;;;;9.52;nan;-24083.03;4971700;28;20275;-66
2023/04/04 01:11:52;;;;;;;31.53;11.23;;;;;;;9.43;nan;-24080.50;4972883;28;20264;-67
2023/04/04 01:14:17;;;;;;;24.00;10.70;;;;;;;9.47;nan;-24081.63;4972614;28;20185;-67
2023/04/04 01:16:44;;;;;;;25.33;12.47;;;;;;;9.42;nan;-24080.06;4972756;28;20243;-67
2023/04/04 01:19:16;;;;;;;21.80;11.10;;;;;;;9.52;nan;-24083.03;4972619;28;20281;-67
2023/04/04 01:21:42;;;;;;;22.57;12.40;;;;;;;9.74;nan;-24089.25;4972702;28;20200;-67
2023/04/04 01:24:11;;;;;;;23.83;11.73;;;;;;;9.47;nan;-24081.63;4977202;28;20608;-67
2023/04/04 01:26:37;;;;;;;24.30;10.87;;;;;;;9.82;nan;-24091.38;4996369;28;20165;-66
2023/04/04 01:29:02;;;;;;;25.30;11.40;;;;;;;9.49;nan;-24082.19;4995706;28;20552;-66
2023/04/04 01:31:36;;;;;;;23.10;11.70;;;;;;;9.45;nan;-24081.06;4996277;28;20173;-66
2023/04/04 01:34:27;;;;;;;23.60;12.07;;;;;;;9.51;nan;-24082.59;4997029;28;20203;-67
2023/04/04 01:36:53;;;;;;;22.37;11.47;;;;;;;9.76;nan;-24089.81;4996655;28;20185;-66
2023/04/04 01:39:21;;;;;;;21.43;11.70;;;;;;;9.81;nan;-24090.94;4996098;28;20180;-66
2023/04/04 01:41:48;;;;;;;27.43;12.47;;;;;;;9.81;nan;-24091.09;4995816;28;20192;-66
2023/04/04 01:44:14;;;;;;;21.47;10.80;;;;;;;9.85;nan;-24092.22;4995798;28;20184;-66
2023/04/04 01:46:40;;;;;;;21.47;11.10;;;;;;;9.89;nan;-24093.34;4995929;28;20224;-67
2023/04/04 01:49:05;;;;;;;22.90;11.53;;;;;;;9.51;nan;-24082.75;4996601;28;20534;-67
2023/04/04 01:51:32;;;;;;;24.27;12.23;;;;;;;9.91;nan;-24093.78;4996169;28;20169;-66
2023/04/04 01:53:58;;;;;;;26.73;11.57;;;;;;;9.65;nan;-24086.72;4995986;28;20177;-66
2023/04/04 01:56:23;;;;;;;20.57;11.70;;;;;;;9.82;nan;-24091.38;4996065;28;20663;-66
2023/04/04 01:58:49;;;;;;;22.10;11.33;;;;;;;9.97;nan;-24095.47;4995368;28;20176;-66
2023/04/04 02:01:14;;;;;;;22.00;10.57;;;;;;;10.03;nan;-24097.31;4996154;28;20184;-67
2023/04/04 02:03:40;;;;;;;30.27;13.37;;;;;;;9.92;nan;-24094.06;4995771;28;20208;-67
2023/04/04 02:06:06;;;;;;;24.30;11.23;;;;;;;9.63;nan;-24086.00;4995474;28;20657;-68
2023/04/04 02:08:32;;;;;;;25.40;12.00;;;;;;;10.02;nan;-24096.88;4995587;28;20311;-66
2023/04/04 02:10:57;;;;;;;29.60;11.90;;;;;;;9.98;nan;-24095.75;4995794;28;20267;-66
2023/04/04 02:13:23;;;;;;;22.20;10.47;;;;;;;9.93;nan;-24094.34;4995106;28;20207;-66
2023/04/04 02:15:50;;;;;;;25.27;10.83;;;;;;;9.90;nan;-24093.63;4995480;28;20632;-68
2023/04/04 02:18:15;;;;;;;21.20;11.83;;;;;;;10.06;nan;-24098.16;4994039;28;20185;-68
2023/04/04 02:20:43;;;;;;;25.53;12.63;;;;;;;9.99;nan;-24096.03;4995633;28;20176;-68
2023/04/04 02:23:09;;;;;;;23.00;12.37;;;;;;;10.07;nan;-24098.28;4994362;28;20650;-66
2023/04/04 02:25:35;;;;;;;23.23;11.80;;;;;;;10.09;nan;-24099.00;4993297;28;20227;-67
2023/04/04 02:28:00;;;;;;;28.87;11.40;;;;;;;10.05;nan;-24097.88;4995093;28;20213;-66
2023/04/04 02:30:26;;;;;;;25.90;11.77;;;;;;;9.72;nan;-24088.69;4995343;28;20235;-66
2023/04/04 02:32:51;;;;;;;26.00;11.33;;;;;;;9.60;nan;-24085.16;4995192;28;20217;-66
2023/04/04 02:35:17;;;;;;;21.27;10.67;;;;;;;9.69;nan;-24087.84;4993835;28;20208;-67
2023/04/04 02:37:48;;;;;;;20.23;11.13;;;;;;;9.87;nan;-24092.78;4994645;28;20549;-66
2023/04/04 02:40:14;;;;;;;18.87;10.33;;;;;;;10.00;nan;-24096.31;4995107;28;20176;-68
2023/04/04 02:42:43;;;;;;;20.17;10.23;;;;;;;9.87;nan;-24092.63;4994694;28;20212;-66
2023/04/04 02:45:10;;;;;;;19.67;9.73;;;;;;;9.95;nan;-24095.03;4995587;28;20184;-66
2023/04/04 02:47:36;;;;;;;25.20;10.87;;;;;;;9.90;nan;-24093.47;4994872;28;20224;-66
2023/04/04 02:50:02;;;;;;;25.93;10.93;;;;;;;10.00;nan;-24096.31;4995231;28;20642;-66
2023/04/04 02:52:28;;;;;;;24.33;11.03;;;;;;;9.65;nan;-24086.72;4994709;28;20260;-66
2023/04/04 02:54:54;;;;;;;17.07;9.53;;;;;;;9.66;nan;-24086.84;4994514;28;20538;-68
2023/04/04 02:57:20;;;;;;;18.40;10.13;;;;;;;9.74;nan;-24089.25;4994665;28;20212;-65
2023/04/04 02:59:45;;;;;;;18.83;8.53;;;;;;;9.85;nan;-24092.06;4994736;28;20172;-66
2023/04/04 03:02:11;;;;;;;17.43;8.70;;;;;;;9.84;nan;-24091.78;4994710;28;20212;-66
2023/04/04 03:04:36;;;;;;;15.40;8.77;;;;;;;9.55;nan;-24083.88;4994936;28;20181;-66
2023/04/04 03:07:02;;;;;;;18.40;9.40;;;;;;;9.86;nan;-24092.50;4994156;28;20220;-66
2023/04/04 03:09:28;;;;;;;16.23;9.03;;;;;;;9.86;nan;-24092.34;4993212;28;20180;-66
2023/04/04 03:11:54;;;;;;;16.87;8.97;;;;;;;9.81;nan;-24090.94;4994215;28;20587;-67
2023/04/04 03:14:19;;;;;;;18.80;9.20;;;;;;;10.02;nan;-24096.88;4993153;28;20184;-67
2023/04/04 03:16:46;;;;;;;18.20;9.30;;;;;;;10.04;nan;-24097.44;4994456;28;20169;-67
2023/04/04 03:19:11;;;;;;;20.30;9.67;;;;;;;10.03;nan;-24097.16;4987750;28;20204;-67
2023/04/04 03:21:36;;;;;;;20.60;11.00;;;;;;;9.86;nan;-24092.34;4982434;28;20539;-66
2023/04/04 03:24:02;;;;;;;23.07;11.23;;;;;;;9.93;nan;-24094.34;4988075;28;20185;-67
2023/04/04 03:26:28;;;;;;;22.50;11.67;;;;;;;9.74;nan;-24089.25;4994178;28;20563;-66
2023/04/04 03:28:53;;;;;;;24.50;11.80;;;;;;;10.05;nan;-24097.88;4994173;28;20236;-68
2023/04/04 03:31:19;;;;;;;26.70;11.80;;;;;;;9.80;nan;-24090.66;4994008;28;20220;-67
2023/04/04 03:33:44;;;;;;;25.80;10.77;;;;;;;10.06;nan;-24098.00;4994043;28;20181;-65
2023/04/04 03:36:11;;;;;;;22.73;11.97;;;;;;;9.62;nan;-24085.84;4994023;28;20187;-67
2023/04/04 03:38:37;;;;;;;25.20;11.47;;;;;;;9.75;nan;-24089.53;4993917;28;20165;-66
2023/04/04 03:41:03;;;;;;;23.43;12.13;;;;;;;9.76;nan;-24089.66;4993659;28;20173;-66
2023/04/04 03:43:31;;;;;;;22.20;11.43;;;;;;;9.84;nan;-24091.78;4993936;28;20227;-67
2023/04/04 03:46:03;;;;;;;24.07;12.23;;;;;;;9.98;nan;-24095.88;4993984;28;20180;-67
2023/04/04 03:48:29;;;;;;;21.70;11.03;;;;;;;9.95;nan;-24094.91;4992988;28;20180;-67
2023/04/04 03:50:56;;;;;;;25.63;11.73;;;;;;;10.11;nan;-24099.41;4994072;28;20173;-68
2023/04/04 03:53:23;;;;;;;26.20;11.77;;;;;;;10.11;nan;-24099.41;4993147;28;20173;-67
2023/04/04 03:55:48;;;;;;;24.30;10.73;;;;;;;10.05;nan;-24097.72;4994030;28;20260;-67
2023/04/04 03:58:14;;;;;;;27.27;10.53;;;;;;;10.11;nan;-24099.41;4993981;28;20718;-65
2023/04/04 04:00:40;;;;;;;21.87;11.23;;;;;;;10.18;nan;-24101.53;4993673;28;20187;-67
2023/04/04 04:03:05;;;;;;;23.10;11.60;;;;;;;9.92;nan;-24094.06;4993449;28;20197;-66
2023/04/04 04:05:30;;;;;;;23.13;10.90;;;;;;;9.99;nan;-24096.03;4993415;28;20184;-67
2023/04/04 04:07:56;;;;;;;21.37;10.90;;;;;;;10.24;nan;-24103.09;4993002;28;20172;-66
2023/04/04 04:10:21;;;;;;;24.10;11.40;;;;;;;10.27;nan;-24103.94;4993301;28;20168;-65
2023/04/04 04:12:47;;;;;;;23.90;11.30;;;;;;;10.02;nan;-24096.88;4993075;28;20203;-65
2023/04/04 04:15:12;;;;;;;24.07;11.43;;;;;;;10.29;nan;-24104.38;4993114;28;20176;-68
2023/04/04 04:17:41;;;;;;;23.93;11.20;;;;;;;10.12;nan;-24099.69;4993166;28;20176;-65
2023/04/04 04:20:08;;;;;;;26.87;12.67;;;;;;;10.33;nan;-24105.63;4992966;28;20184;-66
2023/04/04 04:22:35;;;;;;;23.27;11.93;;;;;;;10.06;nan;-24098.16;4986075;28;20300;-67
2023/04/04 04:25:00;;;;;;;28.87;11.77;;;;;;;10.34;nan;-24105.78;4980556;28;20601;-67
2023/04/04 04:27:26;;;;;;;24.17;10.63;;;;;;;10.39;nan;-24107.19;4981417;28;20181;-66
2023/04/04 04:29:51;;;;;;;24.40;10.90;;;;;;;10.21;nan;-24102.25;4983331;28;20664;-65
2023/04/04 04:32:17;;;;;;;25.63;11.30;;;;;;;10.30;nan;-24104.78;4981201;28;20184;-65
2023/04/04 04:34:43;;;;;;;21.47;10.07;;;;;;;10.06;nan;-24098.00;4982003;28;20686;-66
2023/04/04 04:37:08;;;;;;;19.73;9.43;;;;;;;10.43;nan;-24108.31;4984181;28;20189;-65
2023/04/04 04:39:35;;;;;;;22.73;10.77;;;;;;;10.44;nan;-24108.59;4979425;28;20184;-67
2023/04/04 04:42:01;;;;;;;18.47;9.83;;;;;;;10.16;nan;-24100.97;4977060;28;20575;-66
2023/04/04 04:44:27;;;;;;;18.70;10.73;;;;;;;10.16;nan;-24100.84;4980098;28;20178;-67
2023/04/04 04:46:52;;;;;;;17.87;9.77;;;;;;;10.11;nan;-24099.56;4977469;28;20226;-66
2023/04/04 04:49:17;;;;;;;18.27;10.07;;;;;;;10.42;nan;-24108.16;4978026;28;20671;-66
2023/04/04 04:51:43;;;;;;;18.97;9.70;;;;;;;10.40;nan;-24107.63;4978038;28;20268;-66
2023/04/04 04:54:09;;;;;;;18.97;9.43;;;;;;;10.20;nan;-24101.97;4981156;28;20188;-66
2023/04/04 04:56:35;;;;;;;19.20;9.77;;;;;;;10.35;nan;-24106.19;4975993;28;20185;-66
2023/04/04 04:59:01;;;;;;;18.07;10.10;;;;;;;10.20;nan;-24101.97;4989222;28;20532;-66
2023/04/04 05:01:26;;;;;;;18.83;9.37;;;;;;;10.53;nan;-24111.13;4983338;28;20216;-65
2023/04/04 05:03:52;;;;;;;18.67;9.80;;;;;;;10.56;nan;-24112.13;4976619;28;20181;-66
2023/04/04 05:06:17;;;;;;;18.67;10.30;;;;;;;10.40;nan;-24107.63;4990090;28;20215;-65
2023/04/04 05:08:42;;;;;;;17.90;9.73;;;;;;;10.51;nan;-24110.72;4992253;28;20188;-65
2023/04/04 05:11:08;;;;;;;19.00;10.23;;;;;;;10.41;nan;-24107.88;4992229;28;20238;-65
2023/04/04 05:13:33;;;;;;;19.80;10.93;;;;;;;10.39;nan;-24107.31;4991520;28;20184;-65
2023/04/04 05:15:59;;;;;;;23.93;11.43;;;;;;;10.55;nan;-24111.69;4991539;28;20176;-66
2023/04/04 05:18:26;;;;;;;19.67;10.47;;;;;;;10.56;nan;-24111.97;4991718;28;20184;-66
2023/04/04 05:20:55;;;;;;;20.30;10.87;;;;;;;10.46;nan;-24109.31;4991670;28;20172;-67
2023/04/04 05:23:21;;;;;;;22.57;10.60;;;;;;;10.66;nan;-24114.66;4991969;28;20211;-67
2023/04/04 05:25:52;;;;;;;20.50;10.37;;;;;;;10.68;nan;-24115.22;4991898;28;20173;-67
2023/04/04 05:28:19;;;;;;;26.57;11.03;;;;;;;10.53;nan;-24111.13;4991850;28;20191;-67
2023/04/04 05:30:44;;;;;;;21.05;10.85;;;;;;;10.80;nan;-24118.63;4991503;28;20179;-66
2023/04/04 05:33:10;;;;;;;20.85;10.73;;;;;;;10.71;nan;-24116.22;4991898;28;20188;-66
2023/04/04 05:35:35;;;;;;;18.27;9.50;;;;;;;10.50;nan;-24110.44;4991737;28;20173;-67
2023/04/04 05:38:00;;;;;;;17.98;8.60;;;;;;;10.48;nan;-24109.72;4991954;28;20540;-66
2023/04/04 05:40:26;;;;;;;15.60;8.57;;;;;;;10.49;nan;-24110.16;4992086;28;20276;-65
2023/04/04 05:42:59;;;;;;;16.13;8.67;;;;;;;10.39;nan;-24107.31;4991682;28;20263;-66
2023/04/04 05:45:25;;;;;;;14.30;8.02;;;;;;;10.86;nan;-24120.31;4991904;28;20208;-65
2023/04/04 05:47:51;;;;;;;15.07;7.53;;;;;;;10.87;nan;-24120.59;4991061;28;20260;-65
2023/04/04 05:50:16;;;;;;;13.43;7.75;;;;;;;10.53;nan;-24111.13;4991401;28;20640;-65
2023/04/04 05:52:42;;;;;;;12.70;7.47;;;;;;;10.44;nan;-24108.75;4991191;28;20177;-66
2023/04/04 05:55:07;;;;;;;15.15;7.28;;;;;;;10.36;nan;-24106.47;4991634;28;20173;-65
2023/04/04 05:57:33;;;;;;;14.25;7.88;;;;;;;10.78;nan;-24118.19;4990135;28;20187;-67
2023/04/04 05:59:58;;;;;;;13.73;7.70;;;;;;;10.76;nan;-24117.47;4991003;28;20621;-67
2023/04/04 06:02:24;;;;;;;14.47;7.37;;;;;;;10.84;nan;-24119.75;4991066;28;20209;-67
2023/04/04 06:04:50;;;;;;;12.90;7.60;;;;;;;10.68;nan;-24115.38;4991505;28;20177;-66
2023/04/04 06:07:15;;;;;;;13.60;7.85;;;;;;;10.44;nan;-24108.75;4990176;28;20643;-65
2023/04/04 06:09:42;;;;;;;13.60;7.20;;;;;;;10.54;nan;-24111.56;4991553;28;20231;-65
2023/04/04 06:12:10;;;;;;;12.30;7.68;;;;;;;10.84;nan;-24119.75;4993200;28;20199;-66
2023/04/04 06:14:36;;;;;;;15.77;7.85;;;;;;;10.79;nan;-24118.34;4994899;28;20183;-67
2023/04/04 06:17:02;;;;;;;14.97;7.27;;;;;;;10.53;nan;-24111.13;4994926;28;20252;-66
2023/04/04 06:19:27;;;;;;;13.50;8.20;;;;;;;10.52;nan;-24110.84;4995061;28;20172;-66
2023/04/04 06:21:53;;;;;;;12.65;7.07;;;;;;;10.79;nan;-24118.47;4994723;28;20185;-70
2023/04/04 06:24:18;;;;;;;11.98;7.03;;;;;;;10.89;nan;-24121.28;4994654;28;20180;-68
2023/04/04 06:26:44;;;;;;;13.77;7.03;;;;;;;11.01;nan;-24124.53;4994552;28;20184;-66
2023/04/04 06:29:09;;;;;;;14.57;7.28;;;;;;;10.97;nan;-24123.41;4994575;28;20173;-65
2023/04/04 06:31:35;;;;;;;13.52;7.28;;;;;;;11.08;nan;-24126.50;4994319;28;20184;-65
2023/04/04 06:34:00;;;;;;;13.57;7.65;;;;;;;11.05;nan;-24125.66;4994847;28;20172;-67
2023/04/04 06:36:26;;;;;;;13.02;7.40;;;;;;;11.19;nan;-24129.59;4995350;28;20291;-67
2023/04/04 06:38:51;;;;;;;13.25;7.00;;;;;;;11.20;nan;-24129.75;4995182;28;20556;-68
2023/04/04 06:41:17;;;;;;;18.17;7.18;;;;;;;11.09;nan;-24126.78;4995347;28;20177;-66
2023/04/04 06:43:45;;;;;;;11.95;7.43;;;;;;;10.83;nan;-24119.47;4994970;28;20189;-68
2023/04/04 06:46:11;;;;;;;14.20;7.75;;;;;;;11.06;nan;-24125.94;4994275;28;20172;-66
2023/04/04 06:48:36;;;;;;;12.50;7.32;;;;;;;11.22;nan;-24130.31;4994704;28;20266;-66
2023/04/04 06:51:07;;;;;;;14.32;7.80;;;;;;;11.00;nan;-24124.25;4994949;28;20177;-66
2023/04/04 06:53:33;;;;;;;12.77;7.28;;;;;;;10.94;nan;-24122.69;4994457;28;20156;-66
2023/04/04 06:56:00;;;;;;;15.05;7.57;;;;;;;11.25;nan;-24131.16;4994370;28;20559;-66
2023/04/04 06:58:25;;;;;;;13.70;7.38;;;;;;;11.21;nan;-24130.03;4994609;28;20165;-69
2023/04/04 07:00:51;;;;;;;14.70;7.43;;;;;;;11.12;nan;-24127.50;4994169;28;20173;-65
2023/04/04 07:03:16;;;;;;;13.30;7.38;;;;;;;11.39;nan;-24135.25;4994777;28;20208;-67
2023/04/04 07:05:42;;;;;;;18.75;7.35;;;;;;;11.11;nan;-24127.22;4994435;28;20774;-66
2023/04/04 07:08:08;;;;;;;16.52;8.40;;;;;;;11.17;nan;-24128.91;4994372;28;20679;-66
2023/04/04 07:10:34;;;;;;;15.20;8.23;;;;;;;11.29;nan;-24132.44;4994246;28;20293;-67
2023/04/04 07:12:59;;;;;;;18.50;7.03;;;;;;;11.37;nan;-24134.53;4994353;28;20169;-66
2023/04/04 07:15:26;;;;;;;18.92;7.57;;;;;;;11.34;nan;-24133.84;4994060;28;20211;-66
2023/04/04 07:17:52;;;;;;;12.15;7.45;;;;;;;11.12;nan;-24127.50;4994210;28;20181;-66
2023/04/04 07:20:17;;;;;;;13.45;8.13;;;;;;;11.57;nan;-24140.03;4994207;28;20249;-67
2023/04/04 07:22:43;;;;;;;15.97;9.03;;;;;;;11.14;nan;-24128.19;4994081;28;20200;-65
2023/04/04 07:25:09;;;;;;;15.63;8.17;;;;;;;11.33;nan;-24133.41;4994411;28;20200;-67
2023/04/04 07:27:35;;;;;;;19.07;8.27;;;;;;;11.32;nan;-24133.13;4993918;28;20176;-66
2023/04/04 07:30:01;;;;;;;15.32;8.52;;;;;;;11.52;nan;-24138.78;4993955;28;20219;-67
2023/04/04 07:32:26;;;;;;;22.52;9.10;;;;;;;11.49;nan;-24137.94;4994526;28;20164;-66
2023/04/04 07:34:52;;;;;;;17.75;9.23;;;;;;;11.58;nan;-24140.31;4994150;28;20192;-67
2023/04/04 07:37:18;;;;;;;17.50;9.80;;;;;;;12.04;nan;-24153.13;4993635;28;20173;-67
2023/04/04 07:39:44;;;;;;;21.38;10.07;;;;;;;11.85;nan;-24147.94;4993678;28;20176;-67
2023/04/04 07:42:09;;;;;;;20.10;10.00;;;;;;;11.96;nan;-24151.03;4993720;28;20217;-67
2023/04/04 07:44:35;;;;;;;17.02;8.90;;;;;;;11.98;nan;-24151.59;4993453;28;20636;-67
2023/04/04 07:47:00;;;;;;;17.63;8.93;;;;;;;11.67;nan;-24143.00;4994071;28;20247;-66
2023/04/04 07:49:26;;;;;;;20.23;9.00;;;;;;;11.88;nan;-24148.78;4993660;28;20263;-66
2023/04/04 07:51:51;;;;;;;20.98;10.40;;;;;;;11.86;nan;-24148.34;4993500;28;20173;-66
2023/04/04 07:54:16;;;;;;;20.23;9.15;;;;;;;11.87;nan;-24148.50;4993466;28;20172;-66
2023/04/04 07:56:42;;;;;;;18.35;9.63;;;;;;;11.85;nan;-24148.06;4993074;28;20168;-66
2023/04/04 07:59:07;;;;;;;24.23;10.50;;;;;;;11.74;nan;-24144.84;4992859;28;20172;-64
2023/04/04 08:01:33;;;;;;;18.83;9.80;;;;;;;11.83;nan;-24147.50;4993379;28;20200;-66
2023/04/04 08:03:58;;;;;;;16.38;8.73;;;;;;;11.84;nan;-24147.66;4993569;28;20201;-66
2023/04/04 08:06:24;;;;;;;21.48;10.30;;;;;;;12.13;nan;-24155.81;4992079;28;20176;-66
2023/04/04 08:08:51;;;;;;;17.55;9.38;;;;;;;12.02;nan;-24152.72;4993514;28;20173;-67
2023/04/04 08:11:17;;;;;;;18.67;9.15;;;;;;;11.80;nan;-24146.66;4993355;28;20548;-67
2023/04/04 08:13:42;;;;;;;19.90;8.98;;;;;;;12.34;nan;-24161.59;4993133;28;20244;-67
2023/04/04 08:16:08;;;;;;;19.20;10.38;;;;;;;11.98;nan;-24151.59;4993790;28;20260;-67
2023/04/04 08:18:33;;;;;;;21.17;10.85;;;;;;;12.26;nan;-24159.47;4993170;28;20176;-67
2023/04/04 08:20:58;;;;;;;20.42;10.20;;;;;;;12.22;nan;-24158.34;4993071;28;20261;-68
2023/04/04 08:23:24;;;;;;;18.05;9.43;;;;;;;12.74;nan;-24172.84;4992604;28;20206;-64
2023/04/04 08:25:50;;;;;;;21.92;10.23;;;;;;;12.91;nan;-24177.47;4993223;28;20207;-66
2023/04/04 08:28:15;;;;;;;17.08;8.73;;;;;;;12.57;nan;-24167.91;4992643;28;20165;-66
2023/04/04 08:30:41;;;;;;;17.23;8.93;;;;;;;12.61;nan;-24169.03;4991727;28;20588;-66
2023/04/04 08:33:07;;;;;;;17.58;8.77;;;;;;;12.19;nan;-24157.38;4992362;28;20181;-66
2023/04/04 08:35:33;;;;;;;19.13;9.63;;;;;;;12.19;nan;-24157.38;4992639;28;20168;-67
2023/04/04 08:38:01;;;;;;;18.33;9.77;;;;;;;12.49;nan;-24165.81;4988267;28;20185;-67
2023/04/04 08:40:29;;;;;;;17.08;9.73;;;;;;;12.31;nan;-24160.75;4972766;28;20269;-65
2023/04/04 08:42:56;;;;;;;20.42;9.65;;;;;;;12.09;nan;-24154.69;4972426;28;20228;-66
2023/04/04 08:45:23;;;;;;;18.58;9.27;;;;;;;12.26;nan;-24159.47;4972652;28;20169;-67
2023/04/04 08:47:52;;;;;;;16.48;7.63;;;;;;;12.02;nan;-24152.72;4972735;28;20260;-66
2023/04/04 08:50:18;;;;;;;16.38;8.82;;;;;;;12.35;nan;-24162.00;4972634;28;20174;-65
2023/04/04 08:52:45;;;;;;;16.77;9.45;;;;;;;12.22;nan;-24158.22;4973108;28;20239;-67
2023/04/04 08:55:12;;;;;;;22.10;9.07;;;;;;;12.58;nan;-24168.34;4972784;28;20252;-66
2023/04/04 08:57:37;;;;;;;18.15;8.45;;;;;;;12.51;nan;-24166.22;4972713;28;20200;-67
2023/04/04 09:00:05;;;;;;;17.52;8.63;;;;;;;12.36;nan;-24162.28;4973127;28;20624;-67
2023/04/04 09:02:38;;;;;;;17.52;8.10;;;;;;;12.10;nan;-24154.97;4972613;28;20672;-65
2023/04/04 09:05:07;;;;;;;15.95;8.40;;;;;;;12.06;nan;-24153.84;4972335;28;20165;-67
2023/04/04 09:07:34;;;;;;;16.73;7.70;;;;;;;11.96;nan;-24151.03;4972941;28;20648;-67
2023/04/04 09:10:01;;;;;;;22.15;8.35;;;;;;;12.13;nan;-24155.81;4972657;28;20235;-66
2023/04/04 09:12:27;;;;;;;14.57;7.72;;;;;;;12.35;nan;-24162.00;4973483;28;20655;-66
2023/04/04 09:14:55;;;;;;;14.35;8.93;;;;;;;12.02;nan;-24152.72;4972766;28;20169;-65
2023/04/04 09:17:21;;;;;;;19.52;9.82;;;;;;;12.36;nan;-24162.28;4983131;28;20648;-66
2023/04/04 09:19:46;;;;;;;16.35;8.85;;;;;;;12.48;nan;-24165.38;4978689;28;20183;-65
2023/04/04 09:22:14;;;;;;;15.13;8.23;;;;;;;12.54;nan;-24167.06;4991947;28;20203;-65
2023/04/04 09:24:41;;;;;;;16.83;8.38;;;;;;;12.29;nan;-24160.31;4991413;28;20180;-65
2023/04/04 09:27:11;;;;;;;17.38;8.40;;;;;;;12.72;nan;-24172.13;4985628;28;20670;-64
2023/04/04 09:29:38;;;;;;;19.50;9.70;;;;;;;12.37;nan;-24162.44;4975271;28;20181;-65
2023/04/04 09:32:06;;;;;;;17.63;9.02;;;;;;;12.45;nan;-24164.69;4991787;28;20635;-66
2023/04/04 09:34:32;;;;;;;23.48;9.30;;;;;;;12.62;nan;-24169.31;4987500;28;20215;-65
2023/04/04 09:36:59;;;;;;;17.08;8.32;;;;;;;12.69;nan;-24171.28;4979995;28;20595;-66
2023/04/04 09:39:24;;;;;;;15.60;8.05;;;;;;;12.67;nan;-24170.88;4983062;28;20181;-66
2023/04/04 09:41:50;;;;;;;14.77;8.27;;;;;;;12.46;nan;-24164.81;4991867;28;20569;-66
2023/04/04 09:44:16;;;;;;;16.35;8.82;;;;;;;12.54;nan;-24167.22;4986008;28;20218;-67
2023/04/04 09:46:41;;;;;;;16.25;8.30;;;;;;;12.62;nan;-24169.47;4981451;28;20235;-66
2023/04/04 09:49:17;;;;;;;21.33;8.93;;;;;;;12.76;nan;-24173.25;4988649;28;20169;-65
2023/04/04 09:51:47;;;;;;;16.95;8.27;;;;;;;12.82;nan;-24174.94;4995050;28;20176;-66
2023/04/04 09:54:20;;;;;;;15.57;8.02;;;;;;;12.71;nan;-24171.84;4995336;28;20188;-65
2023/04/04 09:56:46;;;;;;;15.95;7.95;;;;;;;12.83;nan;-24175.22;4993624;28;20255;-64
2023/04/04 09:59:13;;;;;;;20.50;9.27;;;;;;;12.80;nan;-24174.53;4995419;28;20192;-65
2023/04/04 10:01:38;;;;;;;16.35;7.95;;;;;;;12.69;nan;-24171.44;4995311;28;20173;-66
2023/04/04 10:04:05;;;;;;;16.65;8.35;;;;;;;12.83;nan;-24175.22;4995316;28;20185;-65
2023/04/04 10:06:31;;;;;;;17.58;8.88;;;;;;;12.79;nan;-24174.25;4994445;28;20165;-66
2023/04/04 10:08:57;;;;;;;18.80;8.05;;;;;;;12.97;nan;-24179.16;4994753;28;20187;-66
2023/04/04 10:11:33;;;;;;;17.88;8.50;;;;;;;12.45;nan;-24164.69;4995307;28;20255;-64
2023/04/04 10:13:59;;;;;;;13.95;8.00;;;;;;;12.51;nan;-24166.38;4995383;28;20183;-66
2023/04/04 10:16:25;;;;;;;15.30;7.57;;;;;;;12.63;nan;-24169.75;4993780;28;20181;-65
2023/04/04 10:18:52;;;;;;;15.40;8.43;;;;;;;12.74;nan;-24172.69;4994719;28;20176;-66
2023/04/04 10:21:18;;;;;;;16.58;8.77;;;;;;;12.49;nan;-24165.66;4994511;28;20181;-65
2023/04/04 10:23:45;;;;;;;16.00;8.90;;;;;;;12.70;nan;-24171.56;4994309;28;20218;-66
2023/04/04 10:26:12;;;;;;;14.27;7.88;;;;;;;12.99;nan;-24179.72;4994282;28;20168;-67
2023/04/04 10:28:38;;;;;;;16.60;7.97;;;;;;;12.88;nan;-24176.50;4994016;28;20601;-65
2023/04/04 10:31:23;;;;;;;16.42;8.02;;;;;;;13.43;nan;-24191.81;4994098;28;20556;-67
2023/04/04 10:33:55;;;;;;;13.65;7.45;;;;;;;13.54;nan;-24194.91;4993044;28;20659;-65
2023/04/04 10:36:23;;;;;;;20.10;8.13;;;;;;;14.23;nan;-24214.13;4994313;28;20185;-65
2023/04/04 10:39:07;;;;;;;16.20;7.47;;;;;;;13.90;nan;-24205.00;4994063;28;20235;-65
2023/04/04 10:41:34;;;;;;;11.68;6.63;;;;;;;14.64;nan;-24225.50;4994031;28;20202;-66
2023/04/04 10:44:21;;;;;;;15.15;7.15;;;;;;;15.00;nan;-24235.59;4992682;28;20276;-66
2023/04/04 10:46:51;;;;;;;12.70;6.90;;;;;;;14.97;nan;-24234.75;4993455;28;20255;-66
2023/04/04 10:49:18;;;;;;;13.32;7.43;;;;;;;15.70;nan;-24254.91;4993723;28;20819;-65
2023/04/04 10:51:43;;;;;;;14.60;6.57;;;;;;;15.62;nan;-24252.69;4993805;28;20193;-65
2023/04/04 10:54:10;;;;;;;15.30;7.68;;;;;;;15.10;nan;-24238.09;4993798;28;20639;-66
2023/04/04 10:56:35;;;;;;;13.90;7.60;;;;;;;15.35;nan;-24245.25;4993836;28;20250;-65
2023/04/04 10:59:12;;;;;;;17.25;7.82;;;;;;;15.07;nan;-24237.28;4993829;28;20639;-67
2023/04/04 11:01:56;;;;;;;17.63;8.43;;;;;;;15.11;nan;-24238.53;4993505;28;20172;-66
2023/04/04 11:04:30;;;;;;;15.25;7.00;;;;;;;15.62;nan;-24252.69;4994046;28;20164;-65
2023/04/04 11:07:15;;;;;;;16.58;8.05;;;;;;;15.81;nan;-24258.00;4993842;28;20185;-66
2023/04/04 11:09:55;;;;;;;12.13;6.05;;;;;;;15.58;nan;-24251.56;4992378;28;20281;-66
2023/04/04 11:12:26;;;;;;;12.25;7.10;;;;;;;16.10;nan;-24265.81;4994515;28;20188;-65
2023/04/04 11:15:07;;;;;;;13.80;6.38;;;;;;;16.03;nan;-24263.88;4993546;28;20169;-65
2023/04/04 11:17:42;;;;;;;12.05;6.32;;;;;;;16.21;nan;-24268.91;4990404;28;20188;-65
2023/04/04 11:20:08;;;;;;;18.02;7.00;;;;;;;16.01;nan;-24263.31;4982358;28;20173;-66
2023/04/04 11:22:35;;;;;;;11.35;6.15;;;;;;;15.37;nan;-24245.66;4986399;28;20223;-68
2023/04/04 11:25:23;;;;;;;12.98;5.88;;;;;;;15.26;nan;-24242.72;4993456;28;20204;-66
2023/04/04 11:27:52;;;;;;;11.63;6.30;;;;;;;15.48;nan;-24248.75;4974202;28;20644;-67
2023/04/04 11:30:19;;;;;;;11.18;6.07;;;;;;;14.66;nan;-24225.91;4974036;28;20177;-66